Terminal Aerodrome Forecast
Issued by NWS Kansas City/Pleasant Hill, MO

Home | Current Version | Previous Version | Text Only | Print | Product List | Glossary On
Versions: 1 2 3 4 5 6 7 8 9 10 11 12 13 14 15 16 17 18
000
FTUS43 KEAX 171149
TAFMCI
TAF
KMCI 171149Z 1712/1812 17015G25KT P6SM SCT008 OVC012
      TEMPO 1712/1716 3SM -DZ OVC007
     FM171600 18013G23KT 4SM -DZ OVC008
     FM172200 VRB06KT P6SM OVC020
     FM180900 34016G25KT P6SM -RA OVC015=

USA.gov is the U.S. government's official web portal to all federal, state and local government web resources and services.